sensor_id;sensor_type;location;lat;lon;timestamp;temperature;humidity
78490;DHT22;67776;52.012;4.736;2023-03-31T00:01:47;10.22;85.31
78490;DHT22;67776;52.012;4.736;2023-03-31T00:04:13;10.21;85.56
78490;DHT22;67776;52.012;4.736;2023-03-31T00:06:40;10.19;85.53
78490;DHT22;67776;52.012;4.736;2023-03-31T00:09:09;10.21;85.58
78490;DHT22;67776;52.012;4.736;2023-03-31T00:11:35;10.19;85.71
78490;DHT22;67776;52.012;4.736;2023-03-31T00:14:02;10.19;85.90
78490;DHT22;67776;52.012;4.736;2023-03-31T00:16:34;10.22;85.92
78490;DHT22;67776;52.012;4.736;2023-03-31T00:19:00;10.15;86.30
78490;DHT22;67776;52.012;4.736;2023-03-31T00:21:27;10.19;86.49
78490;DHT22;67776;52.012;4.736;2023-03-31T00:23:56;10.21;86.46
78490;DHT22;67776;52.012;4.736;2023-03-31T00:26:22;10.25;88.51
78490;DHT22;67776;52.012;4.736;2023-03-31T00:28:48;10.18;89.16
78490;DHT22;67776;52.012;4.736;2023-03-31T00:31:14;10.13;89.54
78490;DHT22;67776;52.012;4.736;2023-03-31T00:33:39;10.13;90.23
78490;DHT22;67776;52.012;4.736;2023-03-31T00:36:05;10.12;90.22
78490;DHT22;67776;52.012;4.736;2023-03-31T00:38:32;10.11;90.34
78490;DHT22;67776;52.012;4.736;2023-03-31T00:40:58;10.11;90.43
78490;DHT22;67776;52.012;4.736;2023-03-31T00:43:33;10.11;90.43
78490;DHT22;67776;52.012;4.736;2023-03-31T00:46:04;10.08;90.74
78490;DHT22;67776;52.012;4.736;2023-03-31T00:48:32;10.15;90.58
78490;DHT22;67776;52.012;4.736;2023-03-31T00:51:02;10.18;90.44
78490;DHT22;67776;52.012;4.736;2023-03-31T00:53:31;10.18;90.35
78490;DHT22;67776;52.012;4.736;2023-03-31T00:56:01;10.28;89.80
78490;DHT22;67776;52.012;4.736;2023-03-31T00:58:29;10.29;90.11
78490;DHT22;67776;52.012;4.736;2023-03-31T01:00:58;10.25;89.99
78490;DHT22;67776;52.012;4.736;2023-03-31T01:03:26;10.31;89.89
78490;DHT22;67776;52.012;4.736;2023-03-31T01:06:02;10.38;89.60
78490;DHT22;67776;52.012;4.736;2023-03-31T01:08:29;10.40;89.54
78490;DHT22;67776;52.012;4.736;2023-03-31T01:10:59;10.40;89.59
78490;DHT22;67776;52.012;4.736;2023-03-31T01:13:25;10.39;89.96
78490;DHT22;67776;52.012;4.736;2023-03-31T01:15:52;10.40;89.98
78490;DHT22;67776;52.012;4.736;2023-03-31T01:18:18;10.45;89.78
78490;DHT22;67776;52.012;4.736;2023-03-31T01:21:02;10.45;90.09
78490;DHT22;67776;52.012;4.736;2023-03-31T01:24:17;10.46;90.14
78490;DHT22;67776;52.012;4.736;2023-03-31T01:41:04;10.64;90.37
78490;DHT22;67776;52.012;4.736;2023-03-31T01:43:43;10.63;90.47
78490;DHT22;67776;52.012;4.736;2023-03-31T01:48:59;10.63;90.69
78490;DHT22;67776;52.012;4.736;2023-03-31T01:51:38;10.59;91.10
78490;DHT22;67776;52.012;4.736;2023-03-31T01:56:57;10.56;91.45
78490;DHT22;67776;52.012;4.736;2023-03-31T01:59:36;10.52;91.73
78490;DHT22;67776;52.012;4.736;2023-03-31T02:02:08;10.53;91.51
78490;DHT22;67776;52.012;4.736;2023-03-31T02:04:40;10.56;91.68
78490;DHT22;67776;52.012;4.736;2023-03-31T02:07:13;10.53;91.88
78490;DHT22;67776;52.012;4.736;2023-03-31T02:09:45;10.46;92.01
78490;DHT22;67776;52.012;4.736;2023-03-31T02:12:13;10.49;92.01
78490;DHT22;67776;52.012;4.736;2023-03-31T02:14:43;10.48;92.13
78490;DHT22;67776;52.012;4.736;2023-03-31T02:17:16;10.49;92.15
78490;DHT22;67776;52.012;4.736;2023-03-31T02:19:47;10.49;92.24
78490;DHT22;67776;52.012;4.736;2023-03-31T02:22:15;10.45;92.16
78490;DHT22;67776;52.012;4.736;2023-03-31T02:24:44;10.42;91.74
78490;DHT22;67776;52.012;4.736;2023-03-31T02:27:32;10.35;91.60
78490;DHT22;67776;52.012;4.736;2023-03-31T02:29:59;10.32;90.75
78490;DHT22;67776;52.012;4.736;2023-03-31T02:32:41;10.21;91.34
78490;DHT22;67776;52.012;4.736;2023-03-31T02:35:16;10.18;91.17
78490;DHT22;67776;52.012;4.736;2023-03-31T02:37:42;10.16;91.43
78490;DHT22;67776;52.012;4.736;2023-03-31T02:40:13;10.13;91.72
78490;DHT22;67776;52.012;4.736;2023-03-31T02:42:40;10.12;92.10
78490;DHT22;67776;52.012;4.736;2023-03-31T02:48:06;10.16;92.59
78490;DHT22;67776;52.012;4.736;2023-03-31T02:51:01;10.21;92.68
78490;DHT22;67776;52.012;4.736;2023-03-31T02:59:22;10.31;92.58
78490;DHT22;67776;52.012;4.736;2023-03-31T03:02:10;10.29;92.36
78490;DHT22;67776;52.012;4.736;2023-03-31T03:04:47;10.25;92.52
78490;DHT22;67776;52.012;4.736;2023-03-31T03:15:36;10.19;92.75
78490;DHT22;67776;52.012;4.736;2023-03-31T03:18:07;10.19;92.24
78490;DHT22;67776;52.012;4.736;2023-03-31T03:20:33;10.16;92.47
78490;DHT22;67776;52.012;4.736;2023-03-31T03:23:00;10.13;92.31
78490;DHT22;67776;52.012;4.736;2023-03-31T03:25:26;10.09;92.39
78490;DHT22;67776;52.012;4.736;2023-03-31T03:27:51;10.09;92.41
78490;DHT22;67776;52.012;4.736;2023-03-31T03:30:19;10.06;92.24
78490;DHT22;67776;52.012;4.736;2023-03-31T03:32:44;10.02;92.10
78490;DHT22;67776;52.012;4.736;2023-03-31T03:35:10;9.98;92.13
78490;DHT22;67776;52.012;4.736;2023-03-31T03:37:36;9.97;92.42
78490;DHT22;67776;52.012;4.736;2023-03-31T03:40:02;9.95;92.44
78490;DHT22;67776;52.012;4.736;2023-03-31T03:42:34;9.97;92.51
78490;DHT22;67776;52.012;4.736;2023-03-31T03:45:00;9.95;92.93
78490;DHT22;67776;52.012;4.736;2023-03-31T03:47:26;9.97;93.16
78490;DHT22;67776;52.012;4.736;2023-03-31T03:49:51;9.99;93.39
78490;DHT22;67776;52.012;4.736;2023-03-31T03:52:17;10.01;93.60
78490;DHT22;67776;52.012;4.736;2023-03-31T03:54:42;10.01;93.67
78490;DHT22;67776;52.012;4.736;2023-03-31T03:57:07;10.04;93.57
78490;DHT22;67776;52.012;4.736;2023-03-31T03:59:33;10.05;93.44
78490;DHT22;67776;52.012;4.736;2023-03-31T04:01:58;10.05;93.06
78490;DHT22;67776;52.012;4.736;2023-03-31T04:04:24;10.08;93.13
78490;DHT22;67776;52.012;4.736;2023-03-31T04:06:50;10.06;93.01
78490;DHT22;67776;52.012;4.736;2023-03-31T04:09:17;10.09;92.72
78490;DHT22;67776;52.012;4.736;2023-03-31T04:11:43;10.09;92.91
78490;DHT22;67776;52.012;4.736;2023-03-31T04:14:09;10.09;92.66
78490;DHT22;67776;52.012;4.736;2023-03-31T04:16:34;10.11;92.41
78490;DHT22;67776;52.012;4.736;2023-03-31T04:19:00;10.09;92.77
78490;DHT22;67776;52.012;4.736;2023-03-31T04:21:28;10.08;92.92
78490;DHT22;67776;52.012;4.736;2023-03-31T04:23:55;10.05;92.97
78490;DHT22;67776;52.012;4.736;2023-03-31T04:26:28;10.05;92.78
78490;DHT22;67776;52.012;4.736;2023-03-31T04:29:07;10.08;92.92
78490;DHT22;67776;52.012;4.736;2023-03-31T04:31:33;10.02;92.90
78490;DHT22;67776;52.012;4.736;2023-03-31T04:34:03;10.08;92.79
78490;DHT22;67776;52.012;4.736;2023-03-31T04:36:34;10.04;92.72
78490;DHT22;67776;52.012;4.736;2023-03-31T04:39:07;10.02;92.99
78490;DHT22;67776;52.012;4.736;2023-03-31T04:41:35;10.04;93.04
78490;DHT22;67776;52.012;4.736;2023-03-31T04:44:00;9.99;93.06
78490;DHT22;67776;52.012;4.736;2023-03-31T04:46:25;9.98;93.26
78490;DHT22;67776;52.012;4.736;2023-03-31T04:48:53;10.01;93.13
78490;DHT22;67776;52.012;4.736;2023-03-31T04:51:18;9.98;93.11
78490;DHT22;67776;52.012;4.736;2023-03-31T04:53:45;9.99;92.77
78490;DHT22;67776;52.012;4.736;2023-03-31T04:56:11;10.05;92.76
78490;DHT22;67776;52.012;4.736;2023-03-31T04:58:37;10.02;92.69
78490;DHT22;67776;52.012;4.736;2023-03-31T05:01:03;10.04;92.63
78490;DHT22;67776;52.012;4.736;2023-03-31T05:03:32;10.04;92.63
78490;DHT22;67776;52.012;4.736;2023-03-31T05:05:57;10.02;92.48
78490;DHT22;67776;52.012;4.736;2023-03-31T05:08:23;10.02;92.65
78490;DHT22;67776;52.012;4.736;2023-03-31T05:10:48;10.04;92.74
78490;DHT22;67776;52.012;4.736;2023-03-31T05:13:14;10.04;92.62
78490;DHT22;67776;52.012;4.736;2023-03-31T05:15:39;10.02;92.60
78490;DHT22;67776;52.012;4.736;2023-03-31T05:18:06;9.99;92.66
78490;DHT22;67776;52.012;4.736;2023-03-31T05:20:32;10.02;92.62
78490;DHT22;67776;52.012;4.736;2023-03-31T05:22:57;10.01;92.85
78490;DHT22;67776;52.012;4.736;2023-03-31T05:25:25;9.98;92.78
78490;DHT22;67776;52.012;4.736;2023-03-31T05:27:53;9.97;92.77
78490;DHT22;67776;52.012;4.736;2023-03-31T05:30:19;9.98;92.77
78490;DHT22;67776;52.012;4.736;2023-03-31T05:32:45;9.98;92.54
78490;DHT22;67776;52.012;4.736;2023-03-31T05:35:11;9.95;92.95
78490;DHT22;67776;52.012;4.736;2023-03-31T05:37:36;9.95;92.86
78490;DHT22;67776;52.012;4.736;2023-03-31T05:40:02;9.95;92.65
78490;DHT22;67776;52.012;4.736;2023-03-31T05:42:30;9.97;92.91
78490;DHT22;67776;52.012;4.736;2023-03-31T05:44:56;9.95;92.63
78490;DHT22;67776;52.012;4.736;2023-03-31T05:47:22;9.97;92.67
78490;DHT22;67776;52.012;4.736;2023-03-31T05:49:48;9.97;92.68
78490;DHT22;67776;52.012;4.736;2023-03-31T05:52:13;9.98;92.69
78490;DHT22;67776;52.012;4.736;2023-03-31T05:54:44;9.98;92.28
78490;DHT22;67776;52.012;4.736;2023-03-31T05:57:10;9.99;91.99
78490;DHT22;67776;52.012;4.736;2023-03-31T05:59:35;9.98;91.95
78490;DHT22;67776;52.012;4.736;2023-03-31T06:02:02;9.98;91.58
78490;DHT22;67776;52.012;4.736;2023-03-31T06:04:29;9.98;91.53
78490;DHT22;67776;52.012;4.736;2023-03-31T06:06:58;9.99;91.79
78490;DHT22;67776;52.012;4.736;2023-03-31T06:09:24;9.98;91.90
78490;DHT22;67776;52.012;4.736;2023-03-31T06:11:49;9.95;91.73
78490;DHT22;67776;52.012;4.736;2023-03-31T06:14:15;9.98;91.74
78490;DHT22;67776;52.012;4.736;2023-03-31T06:16:40;9.97;91.24
78490;DHT22;67776;52.012;4.736;2023-03-31T06:19:06;10.02;91.19
78490;DHT22;67776;52.012;4.736;2023-03-31T06:21:32;10.01;90.99
78490;DHT22;67776;52.012;4.736;2023-03-31T06:23:58;10.01;91.61
78490;DHT22;67776;52.012;4.736;2023-03-31T06:26:25;9.94;91.82
78490;DHT22;67776;52.012;4.736;2023-03-31T06:28:51;9.91;92.09
78490;DHT22;67776;52.012;4.736;2023-03-31T06:31:19;9.88;92.07
78490;DHT22;67776;52.012;4.736;2023-03-31T06:33:45;9.88;92.53
78490;DHT22;67776;52.012;4.736;2023-03-31T06:36:12;9.87;92.64
78490;DHT22;67776;52.012;4.736;2023-03-31T06:38:38;9.84;92.67
78490;DHT22;67776;52.012;4.736;2023-03-31T06:41:04;9.83;92.87
78490;DHT22;67776;52.012;4.736;2023-03-31T06:43:31;9.87;92.98
78490;DHT22;67776;52.012;4.736;2023-03-31T06:45:57;9.90;92.91
78490;DHT22;67776;52.012;4.736;2023-03-31T06:48:23;9.91;92.86
78490;DHT22;67776;52.012;4.736;2023-03-31T06:50:49;9.94;93.19
78490;DHT22;67776;52.012;4.736;2023-03-31T06:53:15;9.97;93.20
78490;DHT22;67776;52.012;4.736;2023-03-31T06:55:40;9.98;93.04
78490;DHT22;67776;52.012;4.736;2023-03-31T06:58:05;9.98;92.86
78490;DHT22;67776;52.012;4.736;2023-03-31T07:00:31;10.04;93.07
78490;DHT22;67776;52.012;4.736;2023-03-31T07:02:57;10.05;92.94
78490;DHT22;67776;52.012;4.736;2023-03-31T07:05:23;10.09;93.06
78490;DHT22;67776;52.012;4.736;2023-03-31T07:07:56;10.15;92.88
78490;DHT22;67776;52.012;4.736;2023-03-31T07:10:22;10.18;92.93
78490;DHT22;67776;52.012;4.736;2023-03-31T07:12:48;10.22;92.79
78490;DHT22;67776;52.012;4.736;2023-03-31T07:15:14;10.23;92.37
78490;DHT22;67776;52.012;4.736;2023-03-31T07:17:40;10.28;92.31
78490;DHT22;67776;52.012;4.736;2023-03-31T07:20:11;10.23;92.30
78490;DHT22;67776;52.012;4.736;2023-03-31T07:22:37;10.29;92.68
78490;DHT22;67776;52.012;4.736;2023-03-31T07:25:03;10.29;92.88
78490;DHT22;67776;52.012;4.736;2023-03-31T07:27:29;10.31;92.72
78490;DHT22;67776;52.012;4.736;2023-03-31T07:29:54;10.32;92.67
78490;DHT22;67776;52.012;4.736;2023-03-31T07:32:19;10.32;92.70
78490;DHT22;67776;52.012;4.736;2023-03-31T07:34:46;10.36;92.35
78490;DHT22;67776;52.012;4.736;2023-03-31T07:37:14;10.45;92.57
78490;DHT22;67776;52.012;4.736;2023-03-31T07:39:39;10.56;92.21
78490;DHT22;67776;52.012;4.736;2023-03-31T07:42:05;10.64;91.62
78490;DHT22;67776;52.012;4.736;2023-03-31T07:44:34;10.77;91.52
78490;DHT22;67776;52.012;4.736;2023-03-31T07:47:00;10.81;91.14
78490;DHT22;67776;52.012;4.736;2023-03-31T07:49:32;10.85;91.49
78490;DHT22;67776;52.012;4.736;2023-03-31T07:51:58;10.91;91.33
78490;DHT22;67776;52.012;4.736;2023-03-31T07:54:24;10.94;91.36
78490;DHT22;67776;52.012;4.736;2023-03-31T07:56:50;10.93;91.09
78490;DHT22;67776;52.012;4.736;2023-03-31T07:59:15;10.95;90.20
78490;DHT22;67776;52.012;4.736;2023-03-31T08:01:41;10.95;90.98
78490;DHT22;67776;52.012;4.736;2023-03-31T08:04:06;10.91;91.15
78490;DHT22;67776;52.012;4.736;2023-03-31T08:06:32;10.93;91.24
78490;DHT22;67776;52.012;4.736;2023-03-31T08:08:57;10.93;91.31
78490;DHT22;67776;52.012;4.736;2023-03-31T08:11:23;10.91;91.03
78490;DHT22;67776;52.012;4.736;2023-03-31T08:13:49;10.85;91.28
78490;DHT22;67776;52.012;4.736;2023-03-31T08:16:15;10.80;91.66
78490;DHT22;67776;52.012;4.736;2023-03-31T08:18:40;10.78;92.22
78490;DHT22;67776;52.012;4.736;2023-03-31T08:21:06;10.76;91.86
78490;DHT22;67776;52.012;4.736;2023-03-31T08:23:34;10.71;92.27
78490;DHT22;67776;52.012;4.736;2023-03-31T08:26:09;10.70;92.34
78490;DHT22;67776;52.012;4.736;2023-03-31T08:28:35;10.70;92.14
78490;DHT22;67776;52.012;4.736;2023-03-31T08:31:05;10.71;91.62
78490;DHT22;67776;52.012;4.736;2023-03-31T08:33:31;10.74;92.25
78490;DHT22;67776;52.012;4.736;2023-03-31T08:36:00;10.77;92.35
78490;DHT22;67776;52.012;4.736;2023-03-31T08:38:26;10.85;90.50
78490;DHT22;67776;52.012;4.736;2023-03-31T08:40:58;11.01;90.25
78490;DHT22;67776;52.012;4.736;2023-03-31T08:43:28;11.22;89.97
78490;DHT22;67776;52.012;4.736;2023-03-31T08:45:55;11.35;90.16
78490;DHT22;67776;52.012;4.736;2023-03-31T08:48:25;11.50;89.56
78490;DHT22;67776;52.012;4.736;2023-03-31T08:50:56;11.56;89.26
78490;DHT22;67776;52.012;4.736;2023-03-31T08:53:28;11.74;89.40
78490;DHT22;67776;52.012;4.736;2023-03-31T08:55:57;11.78;89.20
78490;DHT22;67776;52.012;4.736;2023-03-31T09:04:08;11.93;87.43
78490;DHT22;67776;52.012;4.736;2023-03-31T09:06:45;12.02;87.95
78490;DHT22;67776;52.012;4.736;2023-03-31T09:12:13;12.42;84.87
78490;DHT22;67776;52.012;4.736;2023-03-31T09:14:45;12.61;84.87
78490;DHT22;67776;52.012;4.736;2023-03-31T09:17:20;12.53;84.35
78490;DHT22;67776;52.012;4.736;2023-03-31T09:19:53;12.48;85.13
78490;DHT22;67776;52.012;4.736;2023-03-31T09:22:28;12.42;85.10
78490;DHT22;67776;52.012;4.736;2023-03-31T09:25:06;12.31;86.23
78490;DHT22;67776;52.012;4.736;2023-03-31T09:27:34;12.22;85.46
78490;DHT22;67776;52.012;4.736;2023-03-31T09:32:37;12.04;85.96
78490;DHT22;67776;52.012;4.736;2023-03-31T09:35:24;12.01;85.13
78490;DHT22;67776;52.012;4.736;2023-03-31T09:37:50;12.10;85.16
78490;DHT22;67776;52.012;4.736;2023-03-31T09:40:18;12.22;85.87
78490;DHT22;67776;52.012;4.736;2023-03-31T09:43:00;12.33;85.99
78490;DHT22;67776;52.012;4.736;2023-03-31T09:45:26;12.26;84.93
78490;DHT22;67776;52.012;4.736;2023-03-31T09:47:56;12.18;85.10
78490;DHT22;67776;52.012;4.736;2023-03-31T09:50:23;12.17;84.42
78490;DHT22;67776;52.012;4.736;2023-03-31T09:52:58;12.12;84.12
78490;DHT22;67776;52.012;4.736;2023-03-31T09:55:42;12.11;83.75
78490;DHT22;67776;52.012;4.736;2023-03-31T09:58:14;12.10;84.50
78490;DHT22;67776;52.012;4.736;2023-03-31T10:00:55;12.15;82.63
78490;DHT22;67776;52.012;4.736;2023-03-31T10:03:21;12.18;83.06
78490;DHT22;67776;52.012;4.736;2023-03-31T10:05:53;12.21;82.36
78490;DHT22;67776;52.012;4.736;2023-03-31T10:09:03;12.20;82.33
78490;DHT22;67776;52.012;4.736;2023-03-31T10:11:10;12.22;82.26
78490;DHT22;67776;52.012;4.736;2023-03-31T10:13:46;12.26;82.10
78490;DHT22;67776;52.012;4.736;2023-03-31T10:16:30;12.32;82.58
78490;DHT22;67776;52.012;4.736;2023-03-31T10:21:45;12.28;83.39
78490;DHT22;67776;52.012;4.736;2023-03-31T10:24:11;12.29;83.38
78490;DHT22;67776;52.012;4.736;2023-03-31T10:26:37;12.12;82.29
78490;DHT22;67776;52.012;4.736;2023-03-31T10:29:17;11.95;83.76
78490;DHT22;67776;52.012;4.736;2023-03-31T10:31:46;11.87;84.96
78490;DHT22;67776;52.012;4.736;2023-03-31T10:34:14;11.71;85.44
78490;DHT22;67776;52.012;4.736;2023-03-31T10:36:46;11.60;86.65
78490;DHT22;67776;52.012;4.736;2023-03-31T10:39:14;11.43;87.24
78490;DHT22;67776;52.012;4.736;2023-03-31T10:41:41;11.42;88.61
78490;DHT22;67776;52.012;4.736;2023-03-31T10:44:33;11.43;88.15
78490;DHT22;67776;52.012;4.736;2023-03-31T10:47:04;11.56;87.19
78490;DHT22;67776;52.012;4.736;2023-03-31T10:49:36;11.60;87.83
78490;DHT22;67776;52.012;4.736;2023-03-31T10:52:01;11.67;87.76
78490;DHT22;67776;52.012;4.736;2023-03-31T10:54:27;11.73;87.08
78490;DHT22;67776;52.012;4.736;2023-03-31T10:56:59;11.73;88.48
78490;DHT22;67776;52.012;4.736;2023-03-31T10:59:53;11.70;88.00
78490;DHT22;67776;52.012;4.736;2023-03-31T11:02:55;11.66;87.97
78490;DHT22;67776;52.012;4.736;2023-03-31T11:05:45;11.60;88.81
78490;DHT22;67776;52.012;4.736;2023-03-31T11:11:29;11.86;88.35
78490;DHT22;67776;52.012;4.736;2023-03-31T11:29:50;11.90;86.95
78490;DHT22;67776;52.012;4.736;2023-03-31T11:40:59;11.90;85.66
78490;DHT22;67776;52.012;4.736;2023-03-31T11:43:42;11.84;85.26
78490;DHT22;67776;52.012;4.736;2023-03-31T11:51:19;11.73;85.39
78490;DHT22;67776;52.012;4.736;2023-03-31T11:53:46;11.70;84.41
78490;DHT22;67776;52.012;4.736;2023-03-31T11:56:14;11.71;86.24
78490;DHT22;67776;52.012;4.736;2023-03-31T11:58:48;11.71;87.02
78490;DHT22;67776;52.012;4.736;2023-03-31T12:01:24;11.66;85.60
78490;DHT22;67776;52.012;4.736;2023-03-31T12:03:57;11.73;85.75
78490;DHT22;67776;52.012;4.736;2023-03-31T12:06:28;11.87;86.78
78490;DHT22;67776;52.012;4.736;2023-03-31T12:09:09;11.81;86.96
78490;DHT22;67776;52.012;4.736;2023-03-31T12:11:38;11.67;87.01
78490;DHT22;67776;52.012;4.736;2023-03-31T12:16:45;11.62;87.42
78490;DHT22;67776;52.012;4.736;2023-03-31T12:19:23;11.67;88.07
78490;DHT22;67776;52.012;4.736;2023-03-31T12:22:09;11.60;86.68
78490;DHT22;67776;52.012;4.736;2023-03-31T12:24:36;11.63;87.01
78490;DHT22;67776;52.012;4.736;2023-03-31T12:27:13;11.69;87.74
78490;DHT22;67776;52.012;4.736;2023-03-31T12:30:00;11.77;87.70
78490;DHT22;67776;52.012;4.736;2023-03-31T12:32:37;11.81;88.16
78490;DHT22;67776;52.012;4.736;2023-03-31T12:35:24;11.67;87.04
78490;DHT22;67776;52.012;4.736;2023-03-31T12:40:37;11.46;88.38
78490;DHT22;67776;52.012;4.736;2023-03-31T12:43:20;11.46;87.51
78490;DHT22;67776;52.012;4.736;2023-03-31T12:49:26;11.60;87.23
78490;DHT22;67776;52.012;4.736;2023-03-31T12:52:02;11.74;86.57
78490;DHT22;67776;52.012;4.736;2023-03-31T12:57:28;11.77;85.28
78490;DHT22;67776;52.012;4.736;2023-03-31T13:00:20;11.67;86.74
78490;DHT22;67776;52.012;4.736;2023-03-31T13:02:47;11.70;85.03
78490;DHT22;67776;52.012;4.736;2023-03-31T13:08:01;12.06;83.79
78490;DHT22;67776;52.012;4.736;2023-03-31T13:10:28;12.18;83.51
78490;DHT22;67776;52.012;4.736;2023-03-31T13:12:59;12.12;82.31
78490;DHT22;67776;52.012;4.736;2023-03-31T13:15:26;12.04;83.71
78490;DHT22;67776;52.012;4.736;2023-03-31T13:18:03;12.01;83.60
78490;DHT22;67776;52.012;4.736;2023-03-31T13:20:32;11.80;83.98
78490;DHT22;67776;52.012;4.736;2023-03-31T13:23:21;11.70;84.41
78490;DHT22;67776;52.012;4.736;2023-03-31T13:25:53;11.67;85.85
78490;DHT22;67776;52.012;4.736;2023-03-31T13:30:52;11.59;85.79
78490;DHT22;67776;52.012;4.736;2023-03-31T13:33:25;11.53;86.25
78490;DHT22;67776;52.012;4.736;2023-03-31T13:35:59;11.46;86.10
78490;DHT22;67776;52.012;4.736;2023-03-31T13:38:36;11.46;86.49
78490;DHT22;67776;52.012;4.736;2023-03-31T13:41:23;11.47;86.29
78490;DHT22;67776;52.012;4.736;2023-03-31T13:51:57;11.50;87.06
78490;DHT22;67776;52.012;4.736;2023-03-31T14:06:04;11.25;89.55
78490;DHT22;67776;52.012;4.736;2023-03-31T14:08:51;11.25;88.87
78490;DHT22;67776;52.012;4.736;2023-03-31T14:11:20;11.14;88.38
78490;DHT22;67776;52.012;4.736;2023-03-31T14:14:05;11.15;87.60
78490;DHT22;67776;52.012;4.736;2023-03-31T14:16:39;11.23;87.61
78490;DHT22;67776;52.012;4.736;2023-03-31T14:35:56;11.00;87.58
78490;DHT22;67776;52.012;4.736;2023-03-31T14:38:27;11.03;88.47
78490;DHT22;67776;52.012;4.736;2023-03-31T14:40:53;11.04;88.42
78490;DHT22;67776;52.012;4.736;2023-03-31T14:43:25;11.04;89.07
78490;DHT22;67776;52.012;4.736;2023-03-31T14:46:03;11.04;88.93
78490;DHT22;67776;52.012;4.736;2023-03-31T14:48:31;11.03;89.27
78490;DHT22;67776;52.012;4.736;2023-03-31T14:51:00;10.91;88.96
78490;DHT22;67776;52.012;4.736;2023-03-31T14:53:26;10.90;88.76
78490;DHT22;67776;52.012;4.736;2023-03-31T14:55:59;10.90;89.36
78490;DHT22;67776;52.012;4.736;2023-03-31T14:58:30;10.90;89.01
78490;DHT22;67776;52.012;4.736;2023-03-31T15:00:58;10.90;89.10
78490;DHT22;67776;52.012;4.736;2023-03-31T15:03:25;10.93;89.12
78490;DHT22;67776;52.012;4.736;2023-03-31T15:05:56;10.93;87.95
78490;DHT22;67776;52.012;4.736;2023-03-31T15:08:22;10.93;89.20
78490;DHT22;67776;52.012;4.736;2023-03-31T15:10:50;10.93;88.67
78490;DHT22;67776;52.012;4.736;2023-03-31T15:13:20;10.93;89.21
78490;DHT22;67776;52.012;4.736;2023-03-31T15:15:48;10.84;89.69
78490;DHT22;67776;52.012;4.736;2023-03-31T15:18:15;10.77;89.80
78490;DHT22;67776;52.012;4.736;2023-03-31T15:20:42;10.71;90.44
78490;DHT22;67776;52.012;4.736;2023-03-31T15:23:22;10.67;90.84
78490;DHT22;67776;52.012;4.736;2023-03-31T15:26:01;10.68;89.80
78490;DHT22;67776;52.012;4.736;2023-03-31T15:28:32;10.74;90.03
78490;DHT22;67776;52.012;4.736;2023-03-31T15:31:01;10.74;89.32
78490;DHT22;67776;52.012;4.736;2023-03-31T15:33:32;10.76;88.90
78490;DHT22;67776;52.012;4.736;2023-03-31T15:35:58;10.80;88.43
78490;DHT22;67776;52.012;4.736;2023-03-31T15:38:28;10.88;88.34
78490;DHT22;67776;52.012;4.736;2023-03-31T15:40:56;10.94;88.91
78490;DHT22;67776;52.012;4.736;2023-03-31T15:43:48;10.97;88.62
78490;DHT22;67776;52.012;4.736;2023-03-31T15:46:24;10.98;88.90
78490;DHT22;67776;52.012;4.736;2023-03-31T15:48:54;11.00;88.80
78490;DHT22;67776;52.012;4.736;2023-03-31T15:51:34;11.04;88.08
78490;DHT22;67776;52.012;4.736;2023-03-31T15:54:00;11.01;89.03
78490;DHT22;67776;52.012;4.736;2023-03-31T15:59:00;10.87;89.16
78490;DHT22;67776;52.012;4.736;2023-03-31T16:01:34;10.85;89.53
78490;DHT22;67776;52.012;4.736;2023-03-31T16:04:06;10.85;90.66
78490;DHT22;67776;52.012;4.736;2023-03-31T16:06:34;10.80;89.54
78490;DHT22;67776;52.012;4.736;2023-03-31T16:09:11;10.80;90.18
78490;DHT22;67776;52.012;4.736;2023-03-31T16:11:51;10.77;89.91
78490;DHT22;67776;52.012;4.736;2023-03-31T16:16:53;10.78;90.41
78490;DHT22;67776;52.012;4.736;2023-03-31T16:19:21;10.76;90.27
78490;DHT22;67776;52.012;4.736;2023-03-31T16:21:50;10.73;90.45
78490;DHT22;67776;52.012;4.736;2023-03-31T16:24:20;10.64;90.55
78490;DHT22;67776;52.012;4.736;2023-03-31T16:26:57;10.60;91.15
78490;DHT22;67776;52.012;4.736;2023-03-31T16:29:23;10.59;90.95
78490;DHT22;67776;52.012;4.736;2023-03-31T16:31:48;10.60;90.60
78490;DHT22;67776;52.012;4.736;2023-03-31T16:34:14;10.57;90.70
78490;DHT22;67776;52.012;4.736;2023-03-31T16:36:39;10.59;91.24
78490;DHT22;67776;52.012;4.736;2023-03-31T16:39:05;10.56;91.07
78490;DHT22;67776;52.012;4.736;2023-03-31T16:41:31;10.55;90.92
78490;DHT22;67776;52.012;4.736;2023-03-31T16:43:57;10.50;91.49
78490;DHT22;67776;52.012;4.736;2023-03-31T16:46:23;10.50;91.56
78490;DHT22;67776;52.012;4.736;2023-03-31T16:48:49;10.46;91.60
78490;DHT22;67776;52.012;4.736;2023-03-31T16:51:14;10.45;91.89
78490;DHT22;67776;52.012;4.736;2023-03-31T16:53:41;10.43;92.26
78490;DHT22;67776;52.012;4.736;2023-03-31T16:56:10;10.40;91.81
78490;DHT22;67776;52.012;4.736;2023-03-31T16:58:36;10.43;92.07
78490;DHT22;67776;52.012;4.736;2023-03-31T17:01:03;10.42;91.48
78490;DHT22;67776;52.012;4.736;2023-03-31T17:03:30;10.43;91.56
78490;DHT22;67776;52.012;4.736;2023-03-31T17:05:56;10.49;91.44
78490;DHT22;67776;52.012;4.736;2023-03-31T17:08:24;10.42;91.55
78490;DHT22;67776;52.012;4.736;2023-03-31T17:11:13;10.42;92.28
78490;DHT22;67776;52.012;4.736;2023-03-31T17:13:39;10.39;92.02
78490;DHT22;67776;52.012;4.736;2023-03-31T17:16:06;10.36;92.25
78490;DHT22;67776;52.012;4.736;2023-03-31T17:18:32;10.31;92.53
78490;DHT22;67776;52.012;4.736;2023-03-31T17:21:11;10.28;93.26
78490;DHT22;67776;52.012;4.736;2023-03-31T17:23:38;10.28;92.67
78490;DHT22;67776;52.012;4.736;2023-03-31T17:26:06;10.32;91.89
78490;DHT22;67776;52.012;4.736;2023-03-31T17:28:32;10.36;91.93
78490;DHT22;67776;52.012;4.736;2023-03-31T17:30:58;10.35;92.00
78490;DHT22;67776;52.012;4.736;2023-03-31T17:33:24;10.36;92.08
78490;DHT22;67776;52.012;4.736;2023-03-31T17:35:54;10.38;92.04
78490;DHT22;67776;52.012;4.736;2023-03-31T17:38:21;10.38;91.77
78490;DHT22;67776;52.012;4.736;2023-03-31T17:40:46;10.36;91.89
78490;DHT22;67776;52.012;4.736;2023-03-31T17:43:12;10.35;92.10
78490;DHT22;67776;52.012;4.736;2023-03-31T17:45:40;10.32;92.36
78490;DHT22;67776;52.012;4.736;2023-03-31T17:48:05;10.31;92.44
78490;DHT22;67776;52.012;4.736;2023-03-31T17:50:31;10.28;92.67
78490;DHT22;67776;52.012;4.736;2023-03-31T17:52:57;10.26;93.14
78490;DHT22;67776;52.012;4.736;2023-03-31T17:55:23;10.25;92.54
78490;DHT22;67776;52.012;4.736;2023-03-31T17:57:51;10.26;92.94
78490;DHT22;67776;52.012;4.736;2023-03-31T18:00:17;10.26;92.94
78490;DHT22;67776;52.012;4.736;2023-03-31T18:02:43;10.28;92.83
78490;DHT22;67776;52.012;4.736;2023-03-31T18:05:09;10.25;92.78
78490;DHT22;67776;52.012;4.736;2023-03-31T18:07:36;10.22;92.80
78490;DHT22;67776;52.012;4.736;2023-03-31T18:10:03;10.23;93.08
78490;DHT22;67776;52.012;4.736;2023-03-31T18:12:33;10.19;93.08